Latest Coastal Weather Observations for Coolangatta (QLD)

IDN60701

Issued at 4:05 pm EST Thursday 21 August 2014 (issued every 10 minutes, with the page automatically refreshed every 10 minutes)

About coastal observations | Map of coastal stations | Coastal observations for NSW | Marine services | Other Formats
Station Details ID: 040717 Name: COOLANGATTA Lat: -28.17 Lon: 153.51 Height: 4.0 m
Data from the previous 72 hours. | See also: Recent months at Coolangatta (QLD)
Date/Time
EST
Temp

°C
Wind Pressure Rain
since 9am
mm
Weather Cloud Vis
km
Sea
Height
m
Swell
Dir
 
Speed
knots
Gust
knots
hPa Trend Height
m
Period
s
Dir
21/04:00pm 18.0 S 12 19 1022.6 - 0.0 - Partly cloudy 10 - - - -
21/03:30pm 17.9 S 13 20 1022.3 - 0.0 - Partly cloudy 10 - - - -
21/03:00pm 16.8 S 15 21 1022.3 - 0.0 - Cloudy 10 - - - -
21/02:30pm 17.6 SSE 14 19 1022.2 - 0.0 - Partly cloudy 10 - - - -
21/02:00pm 18.9 SSE 18 24 1022.0 - 0.0 - Partly cloudy 10 - - - -
21/01:35pm 20.2 SSE 18 28 1022.2 - 0.0 - Partly cloudy 10 - - - -
21/01:30pm 19.2 SSE 19 28 1022.2 - 0.0 - Partly cloudy 10 - - - -
21/01:01pm 19.0 SSE 18 28 1022.3 - 0.0 - Partly cloudy 10 - - - -
21/01:00pm 18.6 SSE 19 28 1022.3 - 0.0 - Partly cloudy 10 - - - -
21/12:47pm 20.0 SSE 19 30 1022.2 - 0.0 - Partly cloudy 10 - - - -
21/12:30pm 19.8 S 17 24 1022.5 - 0.0 - Partly cloudy 10 - - - -
21/12:07pm 19.5 S 18 28 1023.0 - 0.0 - Partly cloudy 10 - - - -
21/12:00pm 19.0 S 19 28 1023.2 - 0.0 - Cloudy 10 - - - -
21/11:55am 19.4 S 15 28 1023.2 - 0.0 - Partly cloudy 10 - - - -
21/11:30am 19.9 S 16 25 1023.4 - 0.0 - Partly cloudy 10 - - - -
21/11:00am 20.3 S 17 24 1023.8 - 0.0 - Partly cloudy 10 - - - -
21/10:34am 19.2 S 18 28 1023.8 - 0.0 - Partly cloudy 10 - - - -
21/10:30am 19.6 S 17 23 1023.9 - 0.0 - Partly cloudy 10 - - - -
21/10:00am 18.8 S 17 23 1023.8 - 0.0 - Partly cloudy 10 - - - -
21/09:41am 18.0 SSW 15 25 1024.1 - 0.0 - Partly cloudy 10 - - - -
21/09:30am 17.8 SSW 13 22 1024.2 - 0.0 - Partly cloudy 10 - - - -
21/09:00am 16.9 S 15 26 1024.2 - 0.0 - Cloudy 10 - - - -
21/08:59am 16.9 S 15 26 1024.2 - 0.0 - Partly cloudy 10 - - - -
21/08:30am 16.4 S 13 19 1023.9 - 0.0 - Partly cloudy 10 - - - -
21/08:00am 15.8 SSW 15 22 1023.6 - 0.0 - - 10 - - - -
21/07:30am 15.4 SSW 13 21 1023.4 - 0.0 - Partly cloudy 10 - - - -
21/07:00am 14.7 SSW 12 19 1023.3 - 0.0 - Partly cloudy 10 - - - -
21/06:30am 14.2 SSW 14 22 1023.1 - 0.0 - - 10 - - - -
21/06:00am 13.9 SSW 13 23 1022.8 - 0.0 - - 10 - - - -
21/05:30am 14.2 SSW 11 18 1022.5 - 0.0 - - 10 - - - -
21/05:00am 14.4 SSW 11 18 1022.4 - 0.0 - Partly cloudy 10 - - - -
21/04:30am 14.6 S 11 16 1022.3 - 0.0 - Partly cloudy 10 - - - -
21/04:00am 14.9 S 11 18 1022.0 - 0.0 - Partly cloudy 10 - - - -
21/03:30am 14.8 SSW 12 16 1021.9 - 0.0 - Partly cloudy 10 - - - -
21/03:00am 15.1 SSW 12 20 1021.8 - 0.0 - - 10 - - - -
21/02:30am 15.3 SSW 13 21 1021.8 - 0.0 - - 10 - - - -
21/02:00am 15.4 S 13 21 1021.9 - 0.0 - - 10 - - - -
21/01:30am 15.6 S 14 18 1022.0 - 0.0 - Partly cloudy 10 - - - -
21/01:00am 15.8 S 13 18 1022.3 - 0.0 - Partly cloudy 10 - - - -
21/12:30am 15.7 SSW 11 17 1022.5 - 0.0 - Partly cloudy 10 - - - -
21/12:00am 15.7 S 10 16 1022.5 - 0.0 - Mostly cloudy 10 - - - -
 
Date/Time
EST
Temp

°C
Wind Pressure Rain
since 9am
mm
Weather Cloud Vis
km
Sea
Height
m
Swell
Dir
 
Speed
knots
Gust
knots
hPa Trend Height
m
Period
s
Dir
20/11:30pm 16.1 S 10 16 1022.6 - 0.0 - Partly cloudy 10 - - - -
20/11:00pm 15.8 S 11 16 1022.5 - 0.0 - Partly cloudy 10 - - - -
20/10:30pm 16.2 S 11 16 1022.5 - 0.0 - Partly cloudy 10 - - - -
20/10:00pm 16.1 S 11 16 1022.5 - 0.0 - - 10 - - - -
20/09:30pm 16.0 S 10 14 1022.5 - 0.0 - Partly cloudy 10 - - - -
20/09:00pm 16.3 S 10 17 1022.5 - 0.0 - - 10 - - - -
20/08:30pm 16.2 S 10 16 1022.6 - 0.0 - Partly cloudy 10 - - - -
20/08:00pm 16.5 S 10 15 1022.7 - 0.0 - Partly cloudy 10 - - - -
20/07:30pm 16.6 S 8 11 1022.4 - 0.0 - Partly cloudy 10 - - - -
20/07:00pm 16.5 S 9 14 1021.9 - 0.0 - - 10 - - - -
20/06:30pm 16.8 S 11 16 1021.4 - 0.0 - - 10 - - - -
20/06:00pm 17.0 S 11 15 1020.9 - 0.0 - - 10 - - - -
20/05:30pm 17.4 S 13 19 1020.4 - 0.0 - - 10 - - - -
20/05:00pm 18.0 S 13 22 1020.0 - 0.0 - - 10 - - - -
20/04:30pm 18.8 S 13 20 1019.8 - 0.0 - - 10 - - - -
20/04:00pm 19.2 S 17 23 1019.6 - 0.0 - - 10 - - - -
20/03:30pm 19.5 S 15 23 1019.4 - 0.0 - Partly cloudy 10 - - - -
20/03:00pm 19.4 S 16 21 1019.1 - 0.0 - - 10 - - - -
20/02:30pm 19.9 S 15 21 1018.8 - 0.0 - Partly cloudy 10 - - - -
20/02:00pm 20.5 S 14 23 1018.8 - 0.0 - Partly cloudy 10 - - - -
20/01:30pm 20.7 S 16 22 1019.0 - 0.0 - Partly cloudy 10 - - - -
20/01:00pm 20.6 S 15 23 1019.1 - 0.0 - Partly cloudy 10 - - - -
20/12:30pm 20.7 SSE 15 21 1019.0 - 0.0 - Partly cloudy 10 - - - -
20/12:00pm 21.6 S 12 17 1019.3 - 0.0 - Mostly clear 10 - - - -
20/11:30am 20.6 S 13 19 1019.8 - 0.0 - - 10 - - - -
20/11:00am 20.2 SSE 16 22 1020.1 - 0.0 - - 10 - - - -
20/10:30am 20.3 SSW 13 19 1020.3 - 0.0 - - 10 - - - -
20/10:00am 19.7 S 14 19 1020.3 - 0.0 - - 10 - - - -
20/09:30am 19.1 SSW 13 19 1020.2 - 0.0 - - 10 - - - -
20/09:00am 19.2 SSW 9 14 1020.1 - 0.0 - - 10 - - - -
20/08:30am 18.1 SSW 11 18 1020.1 - 0.0 - - 10 - - - -
20/08:00am 17.3 SSW 12 19 1020.0 - 0.0 - - 10 - - - -
20/07:30am 16.7 SSW 12 19 1019.4 - 0.0 - - 10 - - - -
20/07:00am 15.9 S 9 13 1019.1 - 0.0 - - 10 - - - -
20/06:30am 15.5 S 11 16 1018.5 - 0.0 - - 10 - - - -
20/06:00am 15.3 SSW 10 16 1018.1 - 0.0 - - 10 - - - -
20/05:30am 15.3 SSW 9 15 1017.9 - 0.0 - - 10 - - - -
20/05:00am 15.7 SSW 12 19 1017.5 - 0.0 - - 10 - - - -
20/04:30am 15.2 SSW 10 15 1017.5 - 0.0 - Partly cloudy 10 - - - -
20/04:00am 15.0 SSW 10 13 1017.3 - 0.0 - Cloudy 10 - - - -
20/03:51am 15.0 SSW 10 13 1017.3 - 0.0 - Cloudy 10 - - - -
20/03:30am 10.0 S 4 9 1017.3 - 0.0 - Partly cloudy 10 - - - -
20/03:00am 9.2 S 3 4 1017.0 - 0.0 - - 10 - - - -
20/02:30am 10.4 S 5 5 1016.8 - 0.0 - - 10 - - - -
20/02:00am 10.6 CALM 0 0 1016.8 - 0.0 - - 10 - - - -
20/01:30am 10.9 S 3 4 1016.8 - 0.0 - - 10 - - - -
20/01:00am 12.9 SW 5 6 1016.7 - 0.0 - - 10 - - - -
20/12:30am 13.3 WSW 6 7 1016.8 - 0.0 - - 10 - - - -
20/12:00am 11.4 WNW 1 5 1016.6 - 0.0 - - 10 - - - -
 
Date/Time
EST
Temp

°C
Wind Pressure Rain
since 9am
mm
Weather Cloud Vis
km
Sea
Height
m
Swell
Dir
 
Speed
knots
Gust
knots
hPa Trend Height
m
Period
s
Dir
19/11:30pm 12.5 CALM 0 0 1016.5 - 0.0 - - 10 - - - -
19/11:00pm 12.4 CALM 0 3 1016.5 - 0.0 - - 10 - - - -
19/10:30pm 11.9 CALM 0 0 1016.3 - 0.0 - - 10 - - - -
19/10:00pm 13.8 WSW 1 4 1016.1 - 0.0 - - 10 - - - -
19/09:30pm 13.4 SW 1 5 1016.1 - 0.0 - - 10 - - - -
19/09:00pm 14.9 CALM 0 0 1015.8 - 0.0 - Mostly clear 10 - - - -
19/08:30pm 15.9 SSW 5 7 1015.8 - 0.0 - Partly cloudy 10 - - - -
19/08:00pm 16.7 SSW 8 11 1015.7 - 0.0 - Partly cloudy 10 - - - -
19/07:30pm 17.1 SSW 10 17 1015.6 - 0.0 - Partly cloudy 10 - - - -
19/07:00pm 17.7 S 11 17 1015.1 - 0.0 - Cloudy 10 - - - -
19/06:30pm 17.5 S 10 13 1014.4 - 0.0 - Partly cloudy 10 - - - -
19/06:00pm 17.9 S 10 13 1014.0 - 0.0 - Cloudy 10 - - - -
19/05:30pm 18.1 SSE 11 15 1013.4 - 0.0 - Partly cloudy 10 - - - -
19/05:00pm 18.9 E 5 7 1012.2 - 0.0 - Partly cloudy 10 - - - -
19/04:30pm 19.8 ENE 6 7 1011.6 - 0.0 - Partly cloudy 10 - - - -
19/04:00pm 20.6 NE 6 8 1011.4 - 0.0 - Cloudy 10 - - - -
19/03:30pm 20.3 ENE 8 10 1011.1 - 0.0 - Cloudy 10 - - - -
19/03:00pm 20.5 ENE 9 12 1010.9 - 0.0 - Cloudy 10 - - - -
19/02:30pm 20.6 ENE 10 11 1010.7 - 0.0 - Partly cloudy 10 - - - -
19/02:00pm 20.5 ENE 10 13 1010.5 - 0.0 - Partly cloudy 10 - - - -
19/01:30pm 21.2 NE 11 14 1010.5 - 0.0 - Partly cloudy 10 - - - -
19/01:00pm 21.7 NE 9 13 1010.7 - 0.0 - Partly cloudy 10 - - - -
19/12:30pm 23.1 S 8 13 1010.8 - 0.0 - - 10 - - - -
19/12:00pm 23.1 S 11 13 1011.2 - 0.0 - Mostly clear 10 - - - -
19/11:30am 22.4 WSW 5 8 1011.6 - 0.0 - - 10 - - - -
19/11:00am 21.6 SW 7 11 1011.9 - 0.0 - - 10 - - - -
19/10:30am 21.0 WSW 5 9 1012.1 - 0.0 - - 10 - - - -
19/10:00am 20.5 SW 5 7 1012.4 - 0.0 - - 10 - - - -
19/09:30am 19.7 ESE 4 6 1012.7 - 0.0 - - 10 - - - -
19/09:00am 19.0 NNE 5 7 1012.6 - 0.0 - - 10 - - - -
19/08:30am 18.3 N 3 4 1012.6 - 0.0 - - 10 - - - -
19/08:00am 15.6 CALM 0 0 1012.4 - 0.0 - - 10 - - - -
19/07:30am 12.4 WSW 3 5 1012.2 - 0.0 - - 10 - - - -
19/07:00am 10.6 SSW 2 4 1012.0 - 0.0 - - 10 - - - -
19/06:30am 8.7 WSW 2 6 1011.5 - 0.0 - - 10 - - - -
19/06:00am 7.6 S 4 5 1011.2 - 0.0 - - 10 - - - -
19/05:30am 8.0 WSW 3 5 1010.9 - 0.0 - - 10 - - - -
19/05:00am 8.6 W 5 7 1010.3 - 0.0 - - 10 - - - -
19/04:30am 10.5 W 5 9 1010.0 - 0.0 - - 10 - - - -
19/04:00am 10.6 SE 5 8 1010.2 - 0.0 - - 10 - - - -
19/03:30am 8.3 W 3 6 1010.0 - 0.0 - - 10 - - - -
19/03:00am 8.6 WSW 4 6 1010.2 - 0.0 - - 10 - - - -
19/02:30am 9.3 S 1 4 1010.3 - 0.0 - - 10 - - - -
19/02:00am 10.4 SW 4 5 1010.5 - 0.0 - - 10 - - - -
19/01:30am 11.2 WNW 3 6 1010.5 - 0.0 - - 10 - - - -
19/01:00am 13.9 NNW 7 7 1010.7 - 0.0 - - 10 - - - -
19/12:30am 14.3 NNW 6 7 1011.0 - 0.0 - - 10 - - - -
19/12:00am 14.7 WSW 7 11 1011.3 - 0.0 - - 10 - - - -
 
Date/Time
EST
Temp

°C
Wind Pressure Rain
since 9am
mm
Weather Cloud Vis
km
Sea
Height
m
Swell
Dir
 
Speed
knots
Gust
knots
hPa Trend Height
m
Period
s
Dir
18/11:30pm 15.5 WNW 9 11 1011.2 - 0.0 - - 10 - - - -
18/11:00pm 15.5 W 8 11 1011.4 - 0.0 - - 10 - - - -
18/10:30pm 15.5 W 9 13 1011.5 - 0.0 - - 10 - - - -
18/10:00pm 15.4 W 8 11 1011.4 - 0.0 - - 10 - - - -
18/09:30pm 16.2 NW 8 13 1011.3 - 0.0 - - 10 - - - -
18/09:00pm 16.3 WNW 10 15 1011.0 - 0.0 - - 10 - - - -
18/08:30pm 16.5 W 13 19 1010.7 - 0.0 - - 10 - - - -
18/08:00pm 16.5 WNW 10 15 1010.6 - 0.0 - Partly cloudy 10 - - - -
18/07:30pm 16.4 NW 7 11 1010.5 - 0.0 - Partly cloudy 10 - - - -
18/07:00pm 16.6 WNW 9 13 1009.8 - 0.0 - - 10 - - - -
18/06:30pm 16.8 WNW 11 16 1009.4 - 0.0 - Partly cloudy 10 - - - -
18/06:00pm 17.6 WNW 13 17 1008.8 - 0.0 - Partly cloudy 10 - - - -
18/05:30pm 18.0 NW 9 14 1008.7 - 0.0 - Cloudy 10 - - - -
18/05:00pm 18.2 NW 9 16 1008.5 - 0.0 - Cloudy 10 - - - -
18/04:30pm 18.6 NW 10 15 1008.0 - 0.0 - Cloudy 10 - - - -

Other Formats:

Comma delimited format used in spreadsheet applications
http://www.bom.gov.au/fwo/IDN60701/IDN60701.94592.axf

JavaScript Object Notation format (JSON) in row-major order
http://www.bom.gov.au/fwo/IDN60701/IDN60701.94592.json